sensor_id;sensor_type;location;lat;lon;timestamp;temperature;humidity
36716;DHT22;22699;51.034;3.730;2022-09-09T00:04:15;16.50;99.90
36716;DHT22;22699;51.034;3.730;2022-09-09T00:09:27;16.60;99.90
36716;DHT22;22699;51.034;3.730;2022-09-09T00:12:15;16.70;99.90
36716;DHT22;22699;51.034;3.730;2022-09-09T00:15:00;16.80;99.90
36716;DHT22;22699;51.034;3.730;2022-09-09T00:17:33;16.70;99.90
36716;DHT22;22699;51.034;3.730;2022-09-09T00:23:12;16.60;99.90
36716;DHT22;22699;51.034;3.730;2022-09-09T00:25:50;16.60;99.90
36716;DHT22;22699;51.034;3.730;2022-09-09T00:28:23;16.50;99.90
36716;DHT22;22699;51.034;3.730;2022-09-09T00:30:50;16.50;99.90
36716;DHT22;22699;51.034;3.730;2022-09-09T00:33:19;16.40;99.90
36716;DHT22;22699;51.034;3.730;2022-09-09T00:35:58;16.40;99.90
36716;DHT22;22699;51.034;3.730;2022-09-09T00:38:36;16.30;99.90
36716;DHT22;22699;51.034;3.730;2022-09-09T00:41:13;16.30;99.90
36716;DHT22;22699;51.034;3.730;2022-09-09T00:43:40;16.30;99.90
36716;DHT22;22699;51.034;3.730;2022-09-09T00:49:04;16.20;99.90
36716;DHT22;22699;51.034;3.730;2022-09-09T00:51:52;16.10;99.90
36716;DHT22;22699;51.034;3.730;2022-09-09T00:57:27;16.30;99.90
36716;DHT22;22699;51.034;3.730;2022-09-09T01:11:26;16.20;99.90
36716;DHT22;22699;51.034;3.730;2022-09-09T01:14:00;16.30;99.90
36716;DHT22;22699;51.034;3.730;2022-09-09T01:16:30;16.20;99.90
36716;DHT22;22699;51.034;3.730;2022-09-09T01:18:58;16.20;99.90
36716;DHT22;22699;51.034;3.730;2022-09-09T01:21:38;16.10;99.90
36716;DHT22;22699;51.034;3.730;2022-09-09T01:26:44;16.20;99.90
36716;DHT22;22699;51.034;3.730;2022-09-09T01:29:13;16.10;99.90
36716;DHT22;22699;51.034;3.730;2022-09-09T01:31:42;16.10;99.90
36716;DHT22;22699;51.034;3.730;2022-09-09T01:34:15;16.00;99.90
36716;DHT22;22699;51.034;3.730;2022-09-09T01:39:16;15.90;99.90
36716;DHT22;22699;51.034;3.730;2022-09-09T01:41:42;15.90;99.90
36716;DHT22;22699;51.034;3.730;2022-09-09T01:44:08;15.90;99.90
36716;DHT22;22699;51.034;3.730;2022-09-09T01:46:35;16.00;99.90
36716;DHT22;22699;51.034;3.730;2022-09-09T01:49:02;16.00;99.90
36716;DHT22;22699;51.034;3.730;2022-09-09T01:51:30;16.00;99.90
36716;DHT22;22699;51.034;3.730;2022-09-09T01:53:55;16.10;99.90
36716;DHT22;22699;51.034;3.730;2022-09-09T02:04:41;16.00;99.90
36716;DHT22;22699;51.034;3.730;2022-09-09T02:10:05;16.00;99.90
36716;DHT22;22699;51.034;3.730;2022-09-09T02:12:34;16.10;99.90
36716;DHT22;22699;51.034;3.730;2022-09-09T02:15:07;16.30;99.90
36716;DHT22;22699;51.034;3.730;2022-09-09T02:17:38;16.20;99.90
36716;DHT22;22699;51.034;3.730;2022-09-09T02:20:10;16.40;99.90
36716;DHT22;22699;51.034;3.730;2022-09-09T02:22:39;16.20;99.90
36716;DHT22;22699;51.034;3.730;2022-09-09T02:25:08;16.30;99.90
36716;DHT22;22699;51.034;3.730;2022-09-09T02:27:35;16.20;99.90
36716;DHT22;22699;51.034;3.730;2022-09-09T02:30:03;16.30;99.90
36716;DHT22;22699;51.034;3.730;2022-09-09T02:32:32;16.40;99.90
36716;DHT22;22699;51.034;3.730;2022-09-09T02:35:06;16.60;99.90
36716;DHT22;22699;51.034;3.730;2022-09-09T02:37:38;16.50;99.90
36716;DHT22;22699;51.034;3.730;2022-09-09T02:40:10;16.40;99.90
36716;DHT22;22699;51.034;3.730;2022-09-09T02:42:45;16.40;99.90
36716;DHT22;22699;51.034;3.730;2022-09-09T02:45:14;16.40;99.90
36716;DHT22;22699;51.034;3.730;2022-09-09T02:48:09;16.50;99.90
36716;DHT22;22699;51.034;3.730;2022-09-09T02:51:18;16.50;99.90
36716;DHT22;22699;51.034;3.730;2022-09-09T02:54:10;16.50;99.90
36716;DHT22;22699;51.034;3.730;2022-09-09T02:56:42;16.50;99.90
36716;DHT22;22699;51.034;3.730;2022-09-09T02:59:14;16.50;99.90
36716;DHT22;22699;51.034;3.730;2022-09-09T03:01:43;16.40;99.90
36716;DHT22;22699;51.034;3.730;2022-09-09T03:04:10;16.30;99.90
36716;DHT22;22699;51.034;3.730;2022-09-09T03:06:36;16.40;99.90
36716;DHT22;22699;51.034;3.730;2022-09-09T03:09:01;16.50;99.90
36716;DHT22;22699;51.034;3.730;2022-09-09T03:11:30;16.50;99.90
36716;DHT22;22699;51.034;3.730;2022-09-09T03:13:57;16.50;99.90
36716;DHT22;22699;51.034;3.730;2022-09-09T03:16:23;16.40;99.90
36716;DHT22;22699;51.034;3.730;2022-09-09T03:18:52;16.50;99.90
36716;DHT22;22699;51.034;3.730;2022-09-09T03:21:34;16.50;99.90
36716;DHT22;22699;51.034;3.730;2022-09-09T03:24:02;16.70;99.90
36716;DHT22;22699;51.034;3.730;2022-09-09T03:26:30;16.50;99.90
36716;DHT22;22699;51.034;3.730;2022-09-09T03:28:57;16.40;99.90
36716;DHT22;22699;51.034;3.730;2022-09-09T03:31:23;16.50;99.90
36716;DHT22;22699;51.034;3.730;2022-09-09T03:33:57;16.60;99.90
36716;DHT22;22699;51.034;3.730;2022-09-09T03:36:24;16.60;99.90
36716;DHT22;22699;51.034;3.730;2022-09-09T03:38:51;16.40;99.90
36716;DHT22;22699;51.034;3.730;2022-09-09T03:41:23;16.60;99.90
36716;DHT22;22699;51.034;3.730;2022-09-09T03:43:50;16.60;99.90
36716;DHT22;22699;51.034;3.730;2022-09-09T03:46:29;16.60;99.90
36716;DHT22;22699;51.034;3.730;2022-09-09T03:48:54;16.50;99.90
36716;DHT22;22699;51.034;3.730;2022-09-09T03:51:23;16.80;99.90
36716;DHT22;22699;51.034;3.730;2022-09-09T03:54:02;16.90;99.90
36716;DHT22;22699;51.034;3.730;2022-09-09T03:56:30;16.70;99.90
36716;DHT22;22699;51.034;3.730;2022-09-09T03:59:05;16.60;99.90
36716;DHT22;22699;51.034;3.730;2022-09-09T04:01:36;16.60;99.90
36716;DHT22;22699;51.034;3.730;2022-09-09T04:04:16;16.70;99.90
36716;DHT22;22699;51.034;3.730;2022-09-09T04:09:33;16.70;99.90
36716;DHT22;22699;51.034;3.730;2022-09-09T04:12:01;16.50;99.90
36716;DHT22;22699;51.034;3.730;2022-09-09T04:14:28;16.40;99.90
36716;DHT22;22699;51.034;3.730;2022-09-09T04:16:55;16.40;99.90
36716;DHT22;22699;51.034;3.730;2022-09-09T04:19:36;16.50;99.90
36716;DHT22;22699;51.034;3.730;2022-09-09T04:22:20;16.70;99.90
36716;DHT22;22699;51.034;3.730;2022-09-09T04:24:50;16.40;99.90
36716;DHT22;22699;51.034;3.730;2022-09-09T04:27:25;16.50;99.90
36716;DHT22;22699;51.034;3.730;2022-09-09T04:29:53;16.40;99.90
36716;DHT22;22699;51.034;3.730;2022-09-09T04:32:21;16.50;99.90
36716;DHT22;22699;51.034;3.730;2022-09-09T04:34:47;16.60;99.90
36716;DHT22;22699;51.034;3.730;2022-09-09T04:37:19;16.90;99.90
36716;DHT22;22699;51.034;3.730;2022-09-09T04:39:45;16.80;99.90
36716;DHT22;22699;51.034;3.730;2022-09-09T04:42:13;16.60;99.90
36716;DHT22;22699;51.034;3.730;2022-09-09T04:44:39;16.60;99.90
36716;DHT22;22699;51.034;3.730;2022-09-09T04:47:07;16.80;99.90
36716;DHT22;22699;51.034;3.730;2022-09-09T04:49:35;16.80;99.90
36716;DHT22;22699;51.034;3.730;2022-09-09T04:52:02;16.70;99.90
36716;DHT22;22699;51.034;3.730;2022-09-09T04:54:30;16.60;99.90
36716;DHT22;22699;51.034;3.730;2022-09-09T04:57:03;16.50;99.90
36716;DHT22;22699;51.034;3.730;2022-09-09T04:59:29;16.60;99.90
36716;DHT22;22699;51.034;3.730;2022-09-09T05:01:55;16.50;99.90
36716;DHT22;22699;51.034;3.730;2022-09-09T05:04:21;16.50;99.90
36716;DHT22;22699;51.034;3.730;2022-09-09T05:06:49;16.40;99.90
36716;DHT22;22699;51.034;3.730;2022-09-09T05:09:14;16.40;99.90
36716;DHT22;22699;51.034;3.730;2022-09-09T05:11:44;16.30;99.90
36716;DHT22;22699;51.034;3.730;2022-09-09T05:14:11;16.50;99.90
36716;DHT22;22699;51.034;3.730;2022-09-09T05:16:38;16.50;99.90
36716;DHT22;22699;51.034;3.730;2022-09-09T05:19:04;16.50;99.90
36716;DHT22;22699;51.034;3.730;2022-09-09T05:21:30;16.60;99.90
36716;DHT22;22699;51.034;3.730;2022-09-09T05:23:56;16.50;99.90
36716;DHT22;22699;51.034;3.730;2022-09-09T05:26:23;16.70;99.90
36716;DHT22;22699;51.034;3.730;2022-09-09T05:28:49;16.50;99.90
36716;DHT22;22699;51.034;3.730;2022-09-09T05:31:16;16.70;99.90
36716;DHT22;22699;51.034;3.730;2022-09-09T05:33:44;16.60;99.90
36716;DHT22;22699;51.034;3.730;2022-09-09T05:36:18;16.70;99.90
36716;DHT22;22699;51.034;3.730;2022-09-09T05:38:45;16.80;99.90
36716;DHT22;22699;51.034;3.730;2022-09-09T05:41:11;16.80;99.90
36716;DHT22;22699;51.034;3.730;2022-09-09T05:43:37;16.80;99.90
36716;DHT22;22699;51.034;3.730;2022-09-09T05:46:09;16.70;99.90
36716;DHT22;22699;51.034;3.730;2022-09-09T05:48:42;16.70;99.90
36716;DHT22;22699;51.034;3.730;2022-09-09T05:51:14;16.80;99.90
36716;DHT22;22699;51.034;3.730;2022-09-09T05:53:43;16.80;99.90
36716;DHT22;22699;51.034;3.730;2022-09-09T05:56:13;16.80;99.90
36716;DHT22;22699;51.034;3.730;2022-09-09T05:58:49;16.80;99.90
36716;DHT22;22699;51.034;3.730;2022-09-09T06:01:26;17.00;99.90
36716;DHT22;22699;51.034;3.730;2022-09-09T06:03:53;17.00;99.90
36716;DHT22;22699;51.034;3.730;2022-09-09T06:06:23;17.10;99.90
36716;DHT22;22699;51.034;3.730;2022-09-09T06:08:55;16.90;99.90
36716;DHT22;22699;51.034;3.730;2022-09-09T06:11:30;17.00;99.90
36716;DHT22;22699;51.034;3.730;2022-09-09T06:13:59;17.10;99.90
36716;DHT22;22699;51.034;3.730;2022-09-09T06:16:27;17.20;99.90
36716;DHT22;22699;51.034;3.730;2022-09-09T06:18:54;17.10;99.90
36716;DHT22;22699;51.034;3.730;2022-09-09T06:21:28;16.90;99.90
36716;DHT22;22699;51.034;3.730;2022-09-09T06:23:57;16.90;99.90
36716;DHT22;22699;51.034;3.730;2022-09-09T06:26:26;16.80;99.90
36716;DHT22;22699;51.034;3.730;2022-09-09T06:28:54;16.80;99.90
36716;DHT22;22699;51.034;3.730;2022-09-09T06:31:22;17.00;99.90
36716;DHT22;22699;51.034;3.730;2022-09-09T06:33:50;16.70;99.90
36716;DHT22;22699;51.034;3.730;2022-09-09T06:36:19;16.80;99.90
36716;DHT22;22699;51.034;3.730;2022-09-09T06:38:45;16.90;99.90
36716;DHT22;22699;51.034;3.730;2022-09-09T06:41:13;16.90;99.90
36716;DHT22;22699;51.034;3.730;2022-09-09T06:43:39;16.90;99.90
36716;DHT22;22699;51.034;3.730;2022-09-09T06:46:09;16.90;99.90
36716;DHT22;22699;51.034;3.730;2022-09-09T06:48:35;16.90;99.90
36716;DHT22;22699;51.034;3.730;2022-09-09T06:51:21;16.90;99.90
36716;DHT22;22699;51.034;3.730;2022-09-09T06:53:50;17.30;99.90
36716;DHT22;22699;51.034;3.730;2022-09-09T06:58:42;17.60;99.90
36716;DHT22;22699;51.034;3.730;2022-09-09T07:01:12;17.80;99.90
36716;DHT22;22699;51.034;3.730;2022-09-09T07:03:42;17.70;99.90
36716;DHT22;22699;51.034;3.730;2022-09-09T07:06:14;18.00;99.90
36716;DHT22;22699;51.034;3.730;2022-09-09T07:08:42;18.20;99.90
36716;DHT22;22699;51.034;3.730;2022-09-09T07:11:18;18.30;99.90
36716;DHT22;22699;51.034;3.730;2022-09-09T07:13:45;18.30;99.90
36716;DHT22;22699;51.034;3.730;2022-09-09T07:16:16;18.30;99.90
36716;DHT22;22699;51.034;3.730;2022-09-09T07:18:42;18.20;99.90
36716;DHT22;22699;51.034;3.730;2022-09-09T07:21:11;18.20;99.90
36716;DHT22;22699;51.034;3.730;2022-09-09T07:23:38;17.90;99.90
36716;DHT22;22699;51.034;3.730;2022-09-09T07:26:16;17.90;99.90
36716;DHT22;22699;51.034;3.730;2022-09-09T07:28:43;17.70;99.90
36716;DHT22;22699;51.034;3.730;2022-09-09T07:31:30;18.10;99.90
36716;DHT22;22699;51.034;3.730;2022-09-09T07:33:58;18.30;99.90
36716;DHT22;22699;51.034;3.730;2022-09-09T07:36:30;18.60;99.90
36716;DHT22;22699;51.034;3.730;2022-09-09T07:38:59;18.70;99.90
36716;DHT22;22699;51.034;3.730;2022-09-09T07:41:34;18.70;99.90
36716;DHT22;22699;51.034;3.730;2022-09-09T07:44:08;18.60;99.90
36716;DHT22;22699;51.034;3.730;2022-09-09T07:46:35;18.50;99.90
36716;DHT22;22699;51.034;3.730;2022-09-09T07:49:03;18.50;99.90
36716;DHT22;22699;51.034;3.730;2022-09-09T07:51:37;18.60;99.90
36716;DHT22;22699;51.034;3.730;2022-09-09T07:54:06;18.40;99.90
36716;DHT22;22699;51.034;3.730;2022-09-09T07:56:33;18.30;99.90
36716;DHT22;22699;51.034;3.730;2022-09-09T07:59:02;18.20;99.90
36716;DHT22;22699;51.034;3.730;2022-09-09T08:01:41;18.00;99.90
36716;DHT22;22699;51.034;3.730;2022-09-09T08:04:11;17.80;99.90
36716;DHT22;22699;51.034;3.730;2022-09-09T08:06:43;17.80;99.90
36716;DHT22;22699;51.034;3.730;2022-09-09T08:09:10;17.60;99.90
36716;DHT22;22699;51.034;3.730;2022-09-09T08:11:38;17.70;99.90
36716;DHT22;22699;51.034;3.730;2022-09-09T08:14:06;17.60;99.90
36716;DHT22;22699;51.034;3.730;2022-09-09T08:16:47;17.50;99.90
36716;DHT22;22699;51.034;3.730;2022-09-09T08:19:20;17.30;99.90
36716;DHT22;22699;51.034;3.730;2022-09-09T08:21:46;17.40;99.90
36716;DHT22;22699;51.034;3.730;2022-09-09T08:24:15;17.30;99.90
36716;DHT22;22699;51.034;3.730;2022-09-09T08:26:44;17.40;99.90
36716;DHT22;22699;51.034;3.730;2022-09-09T08:29:11;17.20;99.90
36716;DHT22;22699;51.034;3.730;2022-09-09T08:31:43;17.10;99.90
36716;DHT22;22699;51.034;3.730;2022-09-09T08:34:10;17.10;99.90
36716;DHT22;22699;51.034;3.730;2022-09-09T08:36:42;17.10;99.90
36716;DHT22;22699;51.034;3.730;2022-09-09T08:39:12;17.10;99.90
36716;DHT22;22699;51.034;3.730;2022-09-09T08:47:45;17.10;99.90
36716;DHT22;22699;51.034;3.730;2022-09-09T08:53:00;17.20;99.90
36716;DHT22;22699;51.034;3.730;2022-09-09T08:55:39;17.20;99.90
36716;DHT22;22699;51.034;3.730;2022-09-09T08:58:23;17.30;99.90
36716;DHT22;22699;51.034;3.730;2022-09-09T09:11:59;17.20;99.90
36716;DHT22;22699;51.034;3.730;2022-09-09T09:14:33;17.10;99.90
36716;DHT22;22699;51.034;3.730;2022-09-09T09:19:33;17.30;99.90
36716;DHT22;22699;51.034;3.730;2022-09-09T09:22:10;17.30;99.90
36716;DHT22;22699;51.034;3.730;2022-09-09T09:27:18;17.70;99.90
36716;DHT22;22699;51.034;3.730;2022-09-09T09:29:46;18.00;99.90
36716;DHT22;22699;51.034;3.730;2022-09-09T09:32:17;18.30;99.90
36716;DHT22;22699;51.034;3.730;2022-09-09T09:34:54;18.50;99.90
36716;DHT22;22699;51.034;3.730;2022-09-09T09:37:34;18.60;99.90
36716;DHT22;22699;51.034;3.730;2022-09-09T09:40:15;19.00;99.90
36716;DHT22;22699;51.034;3.730;2022-09-09T09:43:16;18.90;99.90
36716;DHT22;22699;51.034;3.730;2022-09-09T09:45:44;18.70;99.90
36716;DHT22;22699;51.034;3.730;2022-09-09T09:48:12;18.60;99.90
36716;DHT22;22699;51.034;3.730;2022-09-09T09:50:51;18.60;99.90
36716;DHT22;22699;51.034;3.730;2022-09-09T09:53:24;18.40;99.90
36716;DHT22;22699;51.034;3.730;2022-09-09T09:56:05;18.50;99.90
36716;DHT22;22699;51.034;3.730;2022-09-09T09:58:37;18.20;99.90
36716;DHT22;22699;51.034;3.730;2022-09-09T10:01:29;18.40;99.90
36716;DHT22;22699;51.034;3.730;2022-09-09T10:04:14;18.20;99.90
36716;DHT22;22699;51.034;3.730;2022-09-09T10:06:41;18.30;99.90
36716;DHT22;22699;51.034;3.730;2022-09-09T10:09:27;18.40;99.90
36716;DHT22;22699;51.034;3.730;2022-09-09T10:17:47;18.10;99.90
36716;DHT22;22699;51.034;3.730;2022-09-09T10:26:30;18.20;99.90
36716;DHT22;22699;51.034;3.730;2022-09-09T10:29:11;18.10;99.90
36716;DHT22;22699;51.034;3.730;2022-09-09T10:43:53;18.40;99.90
36716;DHT22;22699;51.034;3.730;2022-09-09T10:46:59;18.50;99.90
36716;DHT22;22699;51.034;3.730;2022-09-09T10:55:16;19.00;99.90
36716;DHT22;22699;51.034;3.730;2022-09-09T10:57:51;19.20;99.90
36716;DHT22;22699;51.034;3.730;2022-09-09T11:00:45;19.00;99.90
36716;DHT22;22699;51.034;3.730;2022-09-09T11:03:23;18.90;99.90
36716;DHT22;22699;51.034;3.730;2022-09-09T11:06:00;18.90;99.90
36716;DHT22;22699;51.034;3.730;2022-09-09T11:08:29;19.00;99.90
36716;DHT22;22699;51.034;3.730;2022-09-09T11:18:58;19.20;99.90
36716;DHT22;22699;51.034;3.730;2022-09-09T11:21:31;19.40;99.90
36716;DHT22;22699;51.034;3.730;2022-09-09T11:24:18;19.40;99.90
36716;DHT22;22699;51.034;3.730;2022-09-09T11:26:52;19.40;99.90
36716;DHT22;22699;51.034;3.730;2022-09-09T11:32:46;19.70;99.90
36716;DHT22;22699;51.034;3.730;2022-09-09T11:35:33;19.60;99.90
36716;DHT22;22699;51.034;3.730;2022-09-09T11:40:45;19.90;99.90
36716;DHT22;22699;51.034;3.730;2022-09-09T11:43:14;20.10;99.90
36716;DHT22;22699;51.034;3.730;2022-09-09T11:45:41;20.20;99.90
36716;DHT22;22699;51.034;3.730;2022-09-09T11:48:33;20.30;99.90
36716;DHT22;22699;51.034;3.730;2022-09-09T11:51:04;20.40;99.90
36716;DHT22;22699;51.034;3.730;2022-09-09T11:53:31;20.10;99.90
36716;DHT22;22699;51.034;3.730;2022-09-09T11:58:28;19.70;99.90
36716;DHT22;22699;51.034;3.730;2022-09-09T12:00:58;19.80;99.90
36716;DHT22;22699;51.034;3.730;2022-09-09T12:03:46;20.10;99.90
36716;DHT22;22699;51.034;3.730;2022-09-09T12:06:20;20.00;99.90
36716;DHT22;22699;51.034;3.730;2022-09-09T12:08:55;20.20;99.90
36716;DHT22;22699;51.034;3.730;2022-09-09T12:11:29;20.40;99.90
36716;DHT22;22699;51.034;3.730;2022-09-09T12:13:57;20.40;99.90
36716;DHT22;22699;51.034;3.730;2022-09-09T12:16:35;20.50;99.90
36716;DHT22;22699;51.034;3.730;2022-09-09T12:19:06;20.30;99.90
36716;DHT22;22699;51.034;3.730;2022-09-09T12:21:44;20.20;99.90
36716;DHT22;22699;51.034;3.730;2022-09-09T12:24:14;20.20;99.90
36716;DHT22;22699;51.034;3.730;2022-09-09T12:27:20;20.40;99.90
36716;DHT22;22699;51.034;3.730;2022-09-09T12:32:24;20.80;99.90
36716;DHT22;22699;51.034;3.730;2022-09-09T12:35:03;20.50;99.90
36716;DHT22;22699;51.034;3.730;2022-09-09T12:40:17;20.50;99.90
36716;DHT22;22699;51.034;3.730;2022-09-09T12:42:44;20.70;99.90
36716;DHT22;22699;51.034;3.730;2022-09-09T12:45:18;20.60;99.90
36716;DHT22;22699;51.034;3.730;2022-09-09T12:47:54;20.50;99.90
36716;DHT22;22699;51.034;3.730;2022-09-09T12:50:25;20.40;99.90
36716;DHT22;22699;51.034;3.730;2022-09-09T12:52:57;20.40;99.90
36716;DHT22;22699;51.034;3.730;2022-09-09T12:55:32;20.40;99.90
36716;DHT22;22699;51.034;3.730;2022-09-09T12:58:01;20.30;99.90
36716;DHT22;22699;51.034;3.730;2022-09-09T13:00:30;20.30;99.90
36716;DHT22;22699;51.034;3.730;2022-09-09T13:02:59;20.30;99.90
36716;DHT22;22699;51.034;3.730;2022-09-09T13:05:36;20.20;99.90
36716;DHT22;22699;51.034;3.730;2022-09-09T13:08:08;20.00;99.90
36716;DHT22;22699;51.034;3.730;2022-09-09T13:10:50;20.20;99.90
36716;DHT22;22699;51.034;3.730;2022-09-09T13:13:29;20.20;99.90
36716;DHT22;22699;51.034;3.730;2022-09-09T13:15:57;20.30;99.90
36716;DHT22;22699;51.034;3.730;2022-09-09T13:18:34;20.30;99.90
36716;DHT22;22699;51.034;3.730;2022-09-09T13:21:02;20.50;99.90
36716;DHT22;22699;51.034;3.730;2022-09-09T13:23:33;20.80;99.90
36716;DHT22;22699;51.034;3.730;2022-09-09T13:26:05;21.00;99.90
36716;DHT22;22699;51.034;3.730;2022-09-09T13:28:32;21.00;99.90
36716;DHT22;22699;51.034;3.730;2022-09-09T13:31:18;20.90;99.90
36716;DHT22;22699;51.034;3.730;2022-09-09T13:33:45;20.80;99.90
36716;DHT22;22699;51.034;3.730;2022-09-09T13:36:11;20.70;99.90
36716;DHT22;22699;51.034;3.730;2022-09-09T13:38:58;20.90;99.90
36716;DHT22;22699;51.034;3.730;2022-09-09T13:41:41;20.70;99.90
36716;DHT22;22699;51.034;3.730;2022-09-09T13:44:21;20.70;99.90
36716;DHT22;22699;51.034;3.730;2022-09-09T13:47:21;20.80;99.90
36716;DHT22;22699;51.034;3.730;2022-09-09T13:49:46;20.70;99.90
36716;DHT22;22699;51.034;3.730;2022-09-09T13:52:18;20.40;99.90
36716;DHT22;22699;51.034;3.730;2022-09-09T13:54:52;20.40;99.90
36716;DHT22;22699;51.034;3.730;2022-09-09T13:57:23;20.50;99.90
36716;DHT22;22699;51.034;3.730;2022-09-09T13:59:51;20.40;99.90
36716;DHT22;22699;51.034;3.730;2022-09-09T14:02:17;20.50;99.90
36716;DHT22;22699;51.034;3.730;2022-09-09T14:04:44;20.50;99.90
36716;DHT22;22699;51.034;3.730;2022-09-09T14:07:15;20.80;99.90
36716;DHT22;22699;51.034;3.730;2022-09-09T14:09:41;20.70;99.90
36716;DHT22;22699;51.034;3.730;2022-09-09T14:12:11;20.70;99.90
36716;DHT22;22699;51.034;3.730;2022-09-09T14:14:37;20.50;99.90
36716;DHT22;22699;51.034;3.730;2022-09-09T14:17:03;20.50;99.90
36716;DHT22;22699;51.034;3.730;2022-09-09T14:19:29;20.60;99.90
36716;DHT22;22699;51.034;3.730;2022-09-09T14:21:57;20.40;99.90
36716;DHT22;22699;51.034;3.730;2022-09-09T14:24:23;20.40;99.90
36716;DHT22;22699;51.034;3.730;2022-09-09T14:26:49;20.50;99.90
36716;DHT22;22699;51.034;3.730;2022-09-09T14:29:14;20.50;99.90
36716;DHT22;22699;51.034;3.730;2022-09-09T14:31:40;20.60;99.90
36716;DHT22;22699;51.034;3.730;2022-09-09T14:34:06;20.70;99.90
36716;DHT22;22699;51.034;3.730;2022-09-09T14:36:31;21.00;99.90
36716;DHT22;22699;51.034;3.730;2022-09-09T14:38:57;21.30;99.90
36716;DHT22;22699;51.034;3.730;2022-09-09T14:41:24;21.60;99.90
36716;DHT22;22699;51.034;3.730;2022-09-09T14:43:50;21.90;99.70
36716;DHT22;22699;51.034;3.730;2022-09-09T14:46:18;21.70;98.80
36716;DHT22;22699;51.034;3.730;2022-09-09T14:48:44;22.00;98.60
36716;DHT22;22699;51.034;3.730;2022-09-09T14:51:14;22.00;98.40
36716;DHT22;22699;51.034;3.730;2022-09-09T14:53:42;22.10;98.30
36716;DHT22;22699;51.034;3.730;2022-09-09T14:56:14;21.90;98.60
36716;DHT22;22699;51.034;3.730;2022-09-09T14:58:40;22.00;98.10
36716;DHT22;22699;51.034;3.730;2022-09-09T15:01:11;22.10;97.70
36716;DHT22;22699;51.034;3.730;2022-09-09T15:03:38;22.00;97.90
36716;DHT22;22699;51.034;3.730;2022-09-09T15:06:09;22.30;97.30
36716;DHT22;22699;51.034;3.730;2022-09-09T15:08:37;21.90;97.70
36716;DHT22;22699;51.034;3.730;2022-09-09T15:11:05;22.00;97.20
36716;DHT22;22699;51.034;3.730;2022-09-09T15:13:33;22.10;97.30
36716;DHT22;22699;51.034;3.730;2022-09-09T15:16:13;22.50;96.50
36716;DHT22;22699;51.034;3.730;2022-09-09T15:18:39;22.80;95.30
36716;DHT22;22699;51.034;3.730;2022-09-09T15:21:14;22.90;95.20
36716;DHT22;22699;51.034;3.730;2022-09-09T15:23:39;22.70;95.70
36716;DHT22;22699;51.034;3.730;2022-09-09T15:26:06;22.90;94.90
36716;DHT22;22699;51.034;3.730;2022-09-09T15:28:36;22.70;94.50
36716;DHT22;22699;51.034;3.730;2022-09-09T15:31:20;22.50;94.80
36716;DHT22;22699;51.034;3.730;2022-09-09T15:33:52;22.30;94.60
36716;DHT22;22699;51.034;3.730;2022-09-09T15:36:24;22.10;94.90
36716;DHT22;22699;51.034;3.730;2022-09-09T15:38:50;22.20;94.60
36716;DHT22;22699;51.034;3.730;2022-09-09T15:41:17;22.00;95.10
36716;DHT22;22699;51.034;3.730;2022-09-09T15:43:45;21.80;95.60
36716;DHT22;22699;51.034;3.730;2022-09-09T15:48:44;21.20;97.00
36716;DHT22;22699;51.034;3.730;2022-09-09T15:51:11;21.00;97.70
36716;DHT22;22699;51.034;3.730;2022-09-09T15:53:37;20.90;97.90
36716;DHT22;22699;51.034;3.730;2022-09-09T15:56:05;21.00;97.80
36716;DHT22;22699;51.034;3.730;2022-09-09T15:58:32;20.90;97.90
36716;DHT22;22699;51.034;3.730;2022-09-09T16:01:16;20.80;98.50
36716;DHT22;22699;51.034;3.730;2022-09-09T16:03:42;20.80;98.70
36716;DHT22;22699;51.034;3.730;2022-09-09T16:06:09;20.60;99.30
36716;DHT22;22699;51.034;3.730;2022-09-09T16:08:37;20.60;99.70
36716;DHT22;22699;51.034;3.730;2022-09-09T16:11:12;20.60;99.70
36716;DHT22;22699;51.034;3.730;2022-09-09T16:13:40;20.80;99.30
36716;DHT22;22699;51.034;3.730;2022-09-09T16:16:06;20.80;99.50
36716;DHT22;22699;51.034;3.730;2022-09-09T16:18:41;21.10;98.50
36716;DHT22;22699;51.034;3.730;2022-09-09T16:21:14;21.30;97.80
36716;DHT22;22699;51.034;3.730;2022-09-09T16:23:40;21.60;96.70
36716;DHT22;22699;51.034;3.730;2022-09-09T16:26:08;21.80;95.90
36716;DHT22;22699;51.034;3.730;2022-09-09T16:28:34;21.50;96.40
36716;DHT22;22699;51.034;3.730;2022-09-09T16:31:07;21.40;96.90
36716;DHT22;22699;51.034;3.730;2022-09-09T16:33:34;21.50;96.90
36716;DHT22;22699;51.034;3.730;2022-09-09T16:36:06;21.20;97.40
36716;DHT22;22699;51.034;3.730;2022-09-09T16:38:32;21.10;97.80
36716;DHT22;22699;51.034;3.730;2022-09-09T16:40:59;21.00;98.10
36716;DHT22;22699;51.034;3.730;2022-09-09T16:43:25;21.10;98.00
36716;DHT22;22699;51.034;3.730;2022-09-09T16:45:51;21.30;98.10
36716;DHT22;22699;51.034;3.730;2022-09-09T16:48:16;21.10;98.30
36716;DHT22;22699;51.034;3.730;2022-09-09T16:50:42;21.10;98.40
36716;DHT22;22699;51.034;3.730;2022-09-09T16:53:08;20.90;98.90
36716;DHT22;22699;51.034;3.730;2022-09-09T16:55:39;20.90;99.00
36716;DHT22;22699;51.034;3.730;2022-09-09T16:58:06;20.80;99.30
36716;DHT22;22699;51.034;3.730;2022-09-09T17:00:31;21.00;99.70
36716;DHT22;22699;51.034;3.730;2022-09-09T17:02:57;20.80;99.90
36716;DHT22;22699;51.034;3.730;2022-09-09T17:05:25;20.80;99.90
36716;DHT22;22699;51.034;3.730;2022-09-09T17:07:53;20.50;99.90
36716;DHT22;22699;51.034;3.730;2022-09-09T17:10:20;20.30;99.90
36716;DHT22;22699;51.034;3.730;2022-09-09T17:12:45;20.00;99.90
36716;DHT22;22699;51.034;3.730;2022-09-09T17:15:11;19.80;99.90
36716;DHT22;22699;51.034;3.730;2022-09-09T17:17:37;19.60;99.90
36716;DHT22;22699;51.034;3.730;2022-09-09T17:20:04;19.50;99.90
36716;DHT22;22699;51.034;3.730;2022-09-09T17:22:31;19.50;99.90
36716;DHT22;22699;51.034;3.730;2022-09-09T17:24:58;19.40;99.90
36716;DHT22;22699;51.034;3.730;2022-09-09T17:27:23;19.60;99.90
36716;DHT22;22699;51.034;3.730;2022-09-09T17:29:49;19.70;99.90
36716;DHT22;22699;51.034;3.730;2022-09-09T17:32:15;19.90;99.90
36716;DHT22;22699;51.034;3.730;2022-09-09T17:34:40;19.90;99.90
36716;DHT22;22699;51.034;3.730;2022-09-09T17:37:06;19.90;99.90
36716;DHT22;22699;51.034;3.730;2022-09-09T17:39:32;19.80;99.90
36716;DHT22;22699;51.034;3.730;2022-09-09T17:41:58;19.70;99.90
36716;DHT22;22699;51.034;3.730;2022-09-09T17:44:24;19.80;99.90
36716;DHT22;22699;51.034;3.730;2022-09-09T17:46:50;19.80;99.90
36716;DHT22;22699;51.034;3.730;2022-09-09T17:49:17;19.70;99.90
36716;DHT22;22699;51.034;3.730;2022-09-09T17:51:46;19.60;99.90
36716;DHT22;22699;51.034;3.730;2022-09-09T17:54:15;19.40;99.90
36716;DHT22;22699;51.034;3.730;2022-09-09T17:56:42;19.50;99.90
36716;DHT22;22699;51.034;3.730;2022-09-09T17:59:10;19.30;99.90
36716;DHT22;22699;51.034;3.730;2022-09-09T18:01:40;19.30;99.90